Time;durP1;ratioP1;P1;durP2;ratioP2;P2;SDS_P1;SDS_P2;PMS_P1;PMS_P2;Temp;Humidity;BMP_temperature;BMP_pressure;BME280_temperature;BME280_humidity;BME280_pressure;Samples;Min_cycle;Max_cycle;Signal;HPM_P1;HPM_P2
2021/12/20 00:01:55;;;;;;;3.45;2.00;;;;;;;-2.89;64.31;96915.28;5070593;28;20082;-50
2021/12/20 00:04:21;;;;;;;3.72;2.03;;;;;;;-2.85;64.02;96921.13;5071375;28;20120;-44
2021/12/20 00:06:46;;;;;;;4.32;2.40;;;;;;;-2.88;64.63;96927.44;5071109;28;20119;-49
2021/12/20 00:09:12;;;;;;;2.63;1.92;;;;;;;-2.93;64.21;96924.28;5070870;28;20779;-45
2021/12/20 00:11:38;;;;;;;3.58;1.90;;;;;;;-3.03;64.42;96914.50;5070293;28;20469;-48
2021/12/20 00:14:03;;;;;;;3.67;1.95;;;;;;;-2.99;63.96;96929.97;5070600;28;20032;-51
2021/12/20 00:16:29;;;;;;;3.35;1.90;;;;;;;-3.17;64.63;96902.41;5069718;28;20115;-46
2021/12/20 00:18:55;;;;;;;4.22;2.15;;;;;;;-2.97;64.23;96943.78;5070585;28;20034;-46
2021/12/20 00:21:20;;;;;;;4.05;2.03;;;;;;;-2.94;64.53;96946.19;5070613;28;20060;-45
2021/12/20 00:23:46;;;;;;;4.32;2.00;;;;;;;-3.01;64.37;96918.78;5070344;28;20035;-48
2021/12/20 00:26:11;;;;;;;2.70;1.90;;;;;;;-3.02;63.83;96946.72;5069914;28;20037;-44
2021/12/20 00:28:38;;;;;;;2.92;1.80;;;;;;;-3.05;64.75;96950.41;5070725;28;20025;-45
2021/12/20 00:31:04;;;;;;;3.33;1.70;;;;;;;-3.07;64.58;96949.69;5070369;28;20033;-45
2021/12/20 00:33:33;;;;;;;2.55;1.70;;;;;;;-3.07;64.57;96957.56;5070135;28;20083;-47
2021/12/20 00:36:06;;;;;;;2.95;1.55;;;;;;;-2.99;64.48;96964.00;5070579;28;20064;-45
2021/12/20 00:41:15;;;;;;;2.20;1.50;;;;;;;-3.19;64.72;96958.41;5069857;28;20431;-47
2021/12/20 00:43:41;;;;;;;2.08;1.30;;;;;;;-3.26;65.00;96954.56;5070399;28;20157;-48
2021/12/20 00:46:06;;;;;;;2.20;1.38;;;;;;;-3.30;64.29;96979.28;5070536;28;20028;-50
2021/12/20 00:48:32;;;;;;;2.35;1.42;;;;;;;-3.35;64.94;96975.22;5069804;28;20144;-47
2021/12/20 00:50:58;;;;;;;3.25;1.58;;;;;;;-3.46;64.91;96972.47;5069966;28;20029;-47
2021/12/20 00:53:23;;;;;;;2.60;1.60;;;;;;;-3.44;65.08;96978.44;5070221;28;20028;-47
2021/12/20 00:55:49;;;;;;;3.33;1.60;;;;;;;-3.47;64.50;96984.75;5070041;28;20071;-47
2021/12/20 00:58:15;;;;;;;2.15;1.58;;;;;;;-3.45;65.08;96984.63;5069840;28;20036;-48
2021/12/20 01:00:47;;;;;;;2.22;1.35;;;;;;;-3.62;64.39;96963.09;5069750;28;20539;-43
2021/12/20 01:03:14;;;;;;;2.78;1.58;;;;;;;-3.47;65.61;96995.22;5069577;28;20021;-45
2021/12/20 01:05:40;;;;;;;2.28;1.52;;;;;;;-3.48;65.75;96988.31;5070074;28;20115;-49
2021/12/20 01:08:08;;;;;;;2.78;1.55;;;;;;;-3.72;64.79;96954.19;5069543;28;20038;-50
2021/12/20 01:10:37;;;;;;;2.03;1.30;;;;;;;-3.46;65.29;97006.50;5070085;28;20021;-47
2021/12/20 01:13:04;;;;;;;2.38;1.48;;;;;;;-3.48;64.99;97008.38;5069841;28;20033;-50
2021/12/20 01:15:37;;;;;;;2.53;1.50;;;;;;;-3.51;65.24;96998.94;5069772;28;20107;-46
2021/12/20 01:18:05;;;;;;;2.13;1.23;;;;;;;-3.57;65.23;97009.03;5070043;28;20027;-45
2021/12/20 01:20:32;;;;;;;1.70;1.08;;;;;;;-3.67;64.97;97014.84;5069739;28;20029;-47
2021/12/20 01:22:58;;;;;;;2.13;1.40;;;;;;;-3.77;64.61;97013.81;5069498;28;20021;-49
2021/12/20 01:25:24;;;;;;;2.65;1.50;;;;;;;-3.77;65.02;97030.34;5070378;28;20139;-50
2021/12/20 01:27:51;;;;;;;2.38;1.58;;;;;;;-3.81;65.39;97031.47;5070155;28;20035;-48
2021/12/20 01:30:20;;;;;;;2.50;1.00;;;;;;;-3.81;64.80;97035.88;5069461;28;20128;-47
2021/12/20 01:32:46;;;;;;;1.60;1.23;;;;;;;-3.89;65.03;97031.16;5069560;28;20497;-45
2021/12/20 01:35:13;;;;;;;2.67;1.30;;;;;;;-3.92;65.48;97039.22;5070056;28;20033;-49
2021/12/20 01:37:39;;;;;;;1.98;1.10;;;;;;;-4.00;65.53;97023.19;5070983;28;20128;-45
2021/12/20 01:40:08;;;;;;;1.80;1.25;;;;;;;-4.03;65.63;97032.09;5073330;28;20481;-47
2021/12/20 01:42:36;;;;;;;2.78;1.20;;;;;;;-4.13;65.33;97026.63;5073912;28;20024;-48
2021/12/20 01:45:05;;;;;;;2.25;1.13;;;;;;;-4.10;65.72;97051.72;5073341;28;20105;-45
2021/12/20 01:47:34;;;;;;;3.75;1.38;;;;;;;-4.23;65.46;97033.38;5073133;28;20082;-47
2021/12/20 01:50:15;;;;;;;3.97;1.30;;;;;;;-4.62;65.79;96983.66;5073527;28;20038;-46
2021/12/20 01:52:42;;;;;;;2.72;1.10;;;;;;;-4.22;66.11;97048.13;5073380;28;20028;-48
2021/12/20 01:55:11;;;;;;;1.92;1.30;;;;;;;-4.14;66.13;97053.69;5073038;28;20040;-50
2021/12/20 01:57:38;;;;;;;2.50;1.60;;;;;;;-4.13;66.12;97067.59;5073000;28;20032;-50
2021/12/20 02:00:13;;;;;;;3.05;1.73;;;;;;;-4.10;66.18;97070.00;5072031;28;20050;-49
2021/12/20 02:02:40;;;;;;;2.17;1.40;;;;;;;-4.11;66.15;97069.19;5073644;28;20377;-46
2021/12/20 02:05:17;;;;;;;1.75;1.20;;;;;;;-4.08;65.78;97070.75;5072941;28;20032;-45
2021/12/20 02:07:55;;;;;;;2.47;1.48;;;;;;;-4.05;65.88;97079.22;5073012;28;20036;-45
2021/12/20 02:10:20;;;;;;;2.70;1.35;;;;;;;-4.03;66.13;97073.91;5073098;28;20024;-48
2021/12/20 02:12:46;;;;;;;2.67;1.45;;;;;;;-4.07;65.49;97064.59;5073079;28;20029;-47
2021/12/20 02:15:12;;;;;;;2.80;1.25;;;;;;;-4.04;65.33;97080.06;5072637;28;20480;-46
2021/12/20 02:17:39;;;;;;;1.98;1.08;;;;;;;-4.07;65.45;97077.66;5072527;28;20031;-49
2021/12/20 02:20:05;;;;;;;2.78;1.30;;;;;;;-4.03;65.28;97090.41;5073373;28;20119;-51
2021/12/20 02:22:31;;;;;;;3.30;1.40;;;;;;;-4.06;65.43;97087.19;5073436;28;20484;-46
2021/12/20 02:24:56;;;;;;;2.42;1.10;;;;;;;-4.07;65.11;97091.56;5072638;28;20036;-45
2021/12/20 02:27:23;;;;;;;2.08;0.98;;;;;;;-4.09;65.09;97096.03;5072561;28;20379;-44
2021/12/20 02:30:14;;;;;;;2.58;1.10;;;;;;;-4.08;66.04;97099.50;5072719;28;20028;-49
2021/12/20 02:38:21;;;;;;;2.58;1.30;;;;;;;-4.35;65.68;97068.97;5072447;28;20448;-46
2021/12/20 02:40:47;;;;;;;3.05;1.48;;;;;;;-4.14;65.37;97120.78;5072889;28;20078;-45
2021/12/20 02:43:17;;;;;;;3.22;1.35;;;;;;;-4.14;65.42;97132.09;5071091;28;20041;-47
2021/12/20 02:45:43;;;;;;;3.45;1.38;;;;;;;-4.11;65.80;97136.25;5071830;28;20060;-44
2021/12/20 02:48:09;;;;;;;4.38;1.35;;;;;;;-4.16;65.37;97127.88;5070957;28;20037;-49
2021/12/20 02:50:35;;;;;;;2.67;1.30;;;;;;;-4.17;65.01;97145.34;5071998;28;20442;-48
2021/12/20 02:53:00;;;;;;;2.72;1.23;;;;;;;-4.47;64.58;97100.19;5071805;28;20029;-49
2021/12/20 02:55:26;;;;;;;2.30;1.27;;;;;;;-4.23;64.80;97148.34;5072149;28;20029;-48
2021/12/20 02:57:52;;;;;;;3.33;1.30;;;;;;;-4.26;64.65;97149.41;5072118;28;20039;-50
2021/12/20 03:00:18;;;;;;;2.00;1.50;;;;;;;-4.29;64.36;97157.44;5070872;28;20457;-50
2021/12/20 03:02:43;;;;;;;2.65;1.27;;;;;;;-4.32;64.17;97155.84;5071852;28;20060;-49
2021/12/20 03:05:11;;;;;;;5.13;1.48;;;;;;;-4.31;64.50;97172.38;5071899;28;20128;-47
2021/12/20 03:07:46;;;;;;;2.22;1.10;;;;;;;-4.34;63.83;97176.00;5072057;28;20024;-48
2021/12/20 03:10:12;;;;;;;2.38;1.25;;;;;;;-4.61;64.17;97124.56;5072478;28;20333;-47
2021/12/20 03:12:38;;;;;;;2.72;1.50;;;;;;;-4.45;64.22;97170.63;5072255;28;20056;-48
2021/12/20 03:15:11;;;;;;;5.50;1.40;;;;;;;-4.55;63.85;97159.91;5072781;28;20457;-46
2021/12/20 03:17:37;;;;;;;1.42;0.85;;;;;;;-4.55;64.28;97174.72;5072425;28;20033;-48
2021/12/20 03:20:03;;;;;;;3.78;1.17;;;;;;;-4.65;63.93;97174.44;5072510;28;20475;-47
2021/12/20 03:22:29;;;;;;;2.88;1.17;;;;;;;-4.89;64.47;97164.56;5072649;28;20112;-47
2021/12/20 03:24:54;;;;;;;3.15;1.17;;;;;;;-4.80;64.40;97192.75;5072672;28;20392;-47
2021/12/20 03:27:20;;;;;;;2.03;1.17;;;;;;;-4.83;64.40;97187.69;5072077;28;20020;-49
2021/12/20 03:29:46;;;;;;;2.92;1.38;;;;;;;-4.99;63.89;97190.38;5072576;28;20032;-45
2021/12/20 03:32:12;;;;;;;3.15;1.38;;;;;;;-4.91;64.65;97202.97;5071807;28;20101;-45
2021/12/20 03:34:38;;;;;;;2.28;1.10;;;;;;;-4.95;64.27;97202.31;5071968;28;20112;-47
2021/12/20 03:37:04;;;;;;;2.53;1.20;;;;;;;-4.87;63.98;97201.84;5072405;28;20123;-46
2021/12/20 03:39:29;;;;;;;2.08;1.40;;;;;;;-4.92;63.89;97203.91;5072329;28;20037;-46
2021/12/20 03:41:55;;;;;;;1.95;1.08;;;;;;;-4.93;64.38;97199.63;5072221;28;20481;-48
2021/12/20 03:44:21;;;;;;;1.55;1.10;;;;;;;-4.96;64.06;97218.91;5072112;28;20437;-49
2021/12/20 03:46:46;;;;;;;1.73;1.00;;;;;;;-5.02;63.89;97208.00;5072339;28;20029;-49
2021/12/20 03:49:12;;;;;;;3.35;1.30;;;;;;;-4.96;64.32;97223.28;5072357;28;20032;-46
2021/12/20 03:51:37;;;;;;;2.97;1.70;;;;;;;-4.93;64.20;97223.09;5071834;28;20032;-49
2021/12/20 03:54:04;;;;;;;2.15;1.33;;;;;;;-4.93;63.72;97223.09;5072101;28;20265;-45
2021/12/20 03:56:30;;;;;;;2.28;1.48;;;;;;;-4.96;63.51;97218.91;5071026;28;20469;-46
2021/12/20 03:58:55;;;;;;;2.90;1.35;;;;;;;-5.02;63.62;97224.47;5072129;28;20033;-47
2021/12/20 04:01:21;;;;;;;4.00;1.63;;;;;;;-5.13;63.90;97230.34;5071347;28;20114;-47
2021/12/20 04:03:49;;;;;;;2.20;1.38;;;;;;;-5.08;63.91;97241.34;5071440;28;20029;-45
2021/12/20 04:06:15;;;;;;;2.88;1.45;;;;;;;-5.10;63.53;97237.97;5071981;28;20032;-49
2021/12/20 04:08:42;;;;;;;2.60;1.60;;;;;;;-5.37;63.73;97204.75;5071976;28;20106;-45
2021/12/20 04:11:08;;;;;;;3.08;1.50;;;;;;;-5.21;63.67;97248.22;5071271;28;20461;-47
2021/12/20 04:13:34;;;;;;;3.28;1.55;;;;;;;-5.28;63.83;97241.69;5071482;28;20032;-48
2021/12/20 04:16:01;;;;;;;2.58;1.30;;;;;;;-5.56;64.12;97209.34;5071677;28;20029;-46
2021/12/20 04:18:27;;;;;;;4.43;1.45;;;;;;;-5.28;63.84;97262.56;5072066;28;20028;-47
2021/12/20 04:20:53;;;;;;;3.72;1.65;;;;;;;-5.30;63.71;97267.00;5071539;28;20028;-51
2021/12/20 04:23:19;;;;;;;4.85;1.65;;;;;;;-5.35;63.64;97255.06;5071591;28;20315;-49
2021/12/20 04:25:45;;;;;;;3.35;1.90;;;;;;;-5.36;63.88;97268.19;5071599;28;20032;-52
2021/12/20 04:28:10;;;;;;;2.60;1.55;;;;;;;-5.41;63.92;97265.84;5070292;28;20119;-46
2021/12/20 04:30:36;;;;;;;4.38;1.75;;;;;;;-5.68;64.32;97232.59;5071091;28;20078;-45
2021/12/20 04:33:02;;;;;;;3.92;1.83;;;;;;;-5.37;64.01;97275.16;5070812;28;20056;-45
2021/12/20 04:35:27;;;;;;;2.97;1.70;;;;;;;-5.31;64.06;97281.81;5071798;28;20036;-47
2021/12/20 04:37:53;;;;;;;2.92;1.67;;;;;;;-5.33;64.19;97292.31;5070575;28;20036;-48
2021/12/20 04:40:22;;;;;;;3.25;1.80;;;;;;;-5.37;64.27;97300.41;5070949;28;20490;-46
2021/12/20 04:42:51;;;;;;;2.92;1.50;;;;;;;-5.46;64.24;97286.13;5070949;28;20058;-45
2021/12/20 04:45:16;;;;;;;3.05;1.70;;;;;;;-5.65;64.34;97253.28;5071037;28;20081;-44
2021/12/20 04:47:42;;;;;;;3.17;1.52;;;;;;;-5.45;64.58;97306.06;5070722;28;20032;-46
2021/12/20 04:50:09;;;;;;;2.90;1.77;;;;;;;-5.47;64.70;97319.16;5070922;28;20036;-47
2021/12/20 04:52:35;;;;;;;3.85;2.10;;;;;;;-5.68;64.48;97271.69;5070463;28;20029;-44
2021/12/20 04:55:01;;;;;;;3.83;1.60;;;;;;;-5.48;64.84;97321.88;5070937;28;20520;-50
2021/12/20 04:57:27;;;;;;;4.18;2.20;;;;;;;-5.55;65.00;97316.16;5070465;28;20483;-46
2021/12/20 04:59:53;;;;;;;2.40;1.70;;;;;;;-5.60;64.97;97317.34;5070463;28;20033;-44
2021/12/20 05:02:18;;;;;;;4.43;1.73;;;;;;;-5.81;65.21;97289.78;5070689;28;20024;-46
2021/12/20 05:04:44;;;;;;;3.30;1.73;;;;;;;-5.57;65.31;97332.81;5070723;28;20068;-44
2021/12/20 05:07:09;;;;;;;3.15;1.75;;;;;;;-5.59;65.34;97325.09;5070482;28;20032;-45
2021/12/20 05:09:39;;;;;;;3.10;1.90;;;;;;;-5.65;65.03;97321.03;5069756;28;20031;-43
2021/12/20 05:12:15;;;;;;;4.10;1.95;;;;;;;-5.59;65.28;97334.66;5072473;28;20032;-49
2021/12/20 05:14:43;;;;;;;6.55;2.00;;;;;;;-5.62;65.63;97346.94;5074652;28;20032;-46
2021/12/20 05:17:11;;;;;;;5.30;1.80;;;;;;;-5.63;65.23;97353.06;5075384;28;20138;-44
2021/12/20 05:19:38;;;;;;;4.72;1.92;;;;;;;-5.65;65.63;97354.94;5074413;28;20035;-44
2021/12/20 05:22:04;;;;;;;5.32;2.00;;;;;;;-5.65;64.95;97357.53;5074409;28;20158;-44
2021/12/20 05:24:30;;;;;;;4.30;2.20;;;;;;;-5.72;65.26;97358.81;5074974;28;20537;-45
2021/12/20 05:26:55;;;;;;;3.47;1.85;;;;;;;-5.73;65.26;97374.50;5074476;28;20032;-45
2021/12/20 05:29:22;;;;;;;4.03;2.10;;;;;;;-5.72;65.35;97369.22;5074146;28;20031;-44
2021/12/20 05:31:48;;;;;;;3.05;1.70;;;;;;;-5.71;65.42;97372.66;5073945;28;20056;-46
2021/12/20 05:34:13;;;;;;;3.45;1.90;;;;;;;-5.68;64.94;97369.88;5074361;28;20041;-45
2021/12/20 05:36:39;;;;;;;2.53;1.63;;;;;;;-5.94;65.18;97339.13;5072917;28;20032;-47
2021/12/20 05:39:04;;;;;;;4.50;1.80;;;;;;;-5.66;65.28;97379.31;5073113;28;20526;-47
2021/12/20 05:41:30;;;;;;;4.38;2.20;;;;;;;-5.64;65.43;97380.06;5075078;28;20032;-46
2021/12/20 05:43:56;;;;;;;3.05;1.58;;;;;;;-5.61;64.79;97389.50;5074589;28;20039;-44
2021/12/20 05:46:21;;;;;;;3.28;1.65;;;;;;;-5.62;64.84;97391.25;5073927;28;20500;-48
2021/12/20 05:48:47;;;;;;;4.20;1.50;;;;;;;-5.60;64.37;97408.59;5073892;28;20337;-46
2021/12/20 05:51:12;;;;;;;4.00;1.75;;;;;;;-5.66;64.51;97397.56;5074500;28;20854;-50
2021/12/20 05:53:38;;;;;;;3.58;1.75;;;;;;;-5.70;65.02;97410.84;5074587;28;20078;-48
2021/12/20 05:56:04;;;;;;;3.67;1.70;;;;;;;-5.96;64.67;97364.41;5074028;28;20091;-47
2021/12/20 05:58:29;;;;;;;4.15;2.35;;;;;;;-5.64;64.64;97419.19;5073775;28;20086;-49
2021/12/20 06:00:55;;;;;;;3.35;2.00;;;;;;;-5.72;64.47;97405.72;5074204;28;20068;-46
2021/12/20 06:03:20;;;;;;;3.92;1.95;;;;;;;-5.66;64.32;97418.44;5072976;28;20480;-48
2021/12/20 06:05:46;;;;;;;6.07;2.05;;;;;;;-5.86;64.39;97395.19;5072692;28;20365;-51
2021/12/20 06:08:12;;;;;;;2.65;1.50;;;;;;;-5.68;64.24;97428.09;5072243;28;20388;-47
2021/12/20 06:10:37;;;;;;;3.58;1.70;;;;;;;-5.64;64.59;97434.00;5072380;28;20064;-49
2021/12/20 06:13:04;;;;;;;3.83;2.03;;;;;;;-5.63;64.28;97436.50;5073019;28;20036;-53
2021/12/20 06:15:30;;;;;;;4.20;2.00;;;;;;;-5.65;64.64;97435.75;5072803;28;20028;-49
2021/12/20 06:17:56;;;;;;;3.88;2.13;;;;;;;-5.62;64.71;97446.00;5071895;28;20486;-48
2021/12/20 06:20:21;;;;;;;3.85;1.98;;;;;;;-5.62;64.27;97446.00;5073749;28;20120;-51
2021/12/20 06:22:47;;;;;;;3.90;2.33;;;;;;;-5.65;64.28;97461.81;5074094;28;20064;-52
2021/12/20 06:25:14;;;;;;;5.68;2.30;;;;;;;-5.66;64.21;97464.53;5073698;28;20062;-48
2021/12/20 06:27:40;;;;;;;5.03;2.35;;;;;;;-5.78;64.15;97445.16;5073398;28;20028;-50
2021/12/20 06:30:10;;;;;;;3.97;2.20;;;;;;;-5.62;63.89;97473.84;5073746;28;20039;-52
2021/12/20 06:32:37;;;;;;;4.80;2.15;;;;;;;-5.64;63.47;97467.88;5072811;28;20099;-49
2021/12/20 06:35:03;;;;;;;4.43;2.15;;;;;;;-5.81;63.52;97466.13;5072741;28;20042;-51
2021/12/20 06:37:31;;;;;;;3.25;1.98;;;;;;;-5.76;63.45;97480.63;5073049;28;20056;-48
2021/12/20 06:39:56;;;;;;;4.97;2.50;;;;;;;-5.82;63.70;97491.38;5072583;28;20029;-50
2021/12/20 06:42:22;;;;;;;5.15;2.40;;;;;;;-5.89;63.32;97490.00;5072897;28;20082;-53
2021/12/20 06:44:47;;;;;;;6.43;2.25;;;;;;;-5.92;63.83;97491.00;5072803;28;20077;-49
2021/12/20 06:47:14;;;;;;;4.78;2.30;;;;;;;-5.87;63.42;97497.72;5073001;28;20036;-51
2021/12/20 06:49:40;;;;;;;3.47;1.95;;;;;;;-6.11;62.93;97453.81;5072997;28;20031;-51
2021/12/20 06:52:05;;;;;;;3.30;1.67;;;;;;;-5.81;63.00;97513.06;5073078;28;20032;-48
2021/12/20 06:54:31;;;;;;;7.07;2.90;;;;;;;-5.84;62.81;97513.22;5073426;28;20048;-53
2021/12/20 06:56:57;;;;;;;6.10;2.83;;;;;;;-5.82;62.70;97525.25;5073727;28;20111;-50
2021/12/20 06:59:22;;;;;;;5.85;2.90;;;;;;;-5.86;63.20;97518.53;5073467;28;20029;-51
2021/12/20 07:01:48;;;;;;;6.50;3.00;;;;;;;-5.83;62.62;97527.94;5073125;28;20034;-52
2021/12/20 07:04:15;;;;;;;3.78;2.00;;;;;;;-6.00;62.62;97507.94;5073470;28;20040;-50
2021/12/20 07:06:41;;;;;;;4.57;2.15;;;;;;;-5.73;62.80;97530.91;5073378;28;20020;-50
2021/12/20 07:09:08;;;;;;;6.50;2.78;;;;;;;-5.81;62.37;97534.75;5073547;28;20056;-52
2021/12/20 07:11:34;;;;;;;4.85;2.60;;;;;;;-5.78;62.58;97554.63;5073373;28;20117;-50
2021/12/20 07:14:00;;;;;;;3.65;2.47;;;;;;;-5.78;62.58;97545.03;5073344;28;20113;-52
2021/12/20 07:16:25;;;;;;;5.03;2.00;;;;;;;-6.00;62.42;97503.59;5073029;28;20029;-51
2021/12/20 07:18:51;;;;;;;11.43;2.25;;;;;;;-5.69;62.36;97554.13;5073169;28;20032;-51
2021/12/20 07:21:17;;;;;;;5.63;2.55;;;;;;;-5.66;62.14;97563.59;5073089;28;20105;-47
2021/12/20 07:23:43;;;;;;;5.07;2.33;;;;;;;-5.65;61.63;97575.69;5071421;28;20111;-48
2021/12/20 07:26:12;;;;;;;4.22;2.13;;;;;;;-5.58;61.94;97563.16;5070295;28;20039;-50
2021/12/20 07:28:41;;;;;;;5.72;2.20;;;;;;;-5.53;60.88;97571.63;5071850;28;20384;-51
2021/12/20 07:31:07;;;;;;;4.97;2.20;;;;;;;-5.53;61.33;97575.06;5069256;28;20032;-45
2021/12/20 07:33:33;;;;;;;3.72;1.95;;;;;;;-5.54;61.02;97578.59;5070818;28;20113;-46
2021/12/20 07:35:58;;;;;;;5.07;2.15;;;;;;;-5.56;61.36;97579.56;5072059;28;20055;-47
2021/12/20 07:38:24;;;;;;;5.50;2.38;;;;;;;-5.56;61.60;97579.56;5072655;28;20032;-48
2021/12/20 07:40:52;;;;;;;4.70;2.42;;;;;;;-5.51;61.34;97585.41;5072480;28;20476;-52
2021/12/20 07:43:18;;;;;;;4.38;2.22;;;;;;;-5.44;61.09;97594.59;5072240;28;20029;-52
2021/12/20 07:45:49;;;;;;;4.78;2.30;;;;;;;-5.41;60.63;97599.66;5072513;28;20032;-52
2021/12/20 07:48:16;;;;;;;8.60;2.55;;;;;;;-5.35;60.58;97599.31;5072655;28;20456;-50
2021/12/20 07:50:42;;;;;;;6.15;2.88;;;;;;;-5.37;60.52;97603.78;5072396;28;20070;-50
2021/12/20 07:53:08;;;;;;;7.53;2.58;;;;;;;-5.38;59.86;97607.31;5069025;28;20440;-61
2021/12/20 07:55:34;;;;;;;5.22;2.60;;;;;;;-5.38;60.46;97620.34;5069693;28;20465;-47
2021/12/20 07:57:59;;;;;;;7.47;2.97;;;;;;;-5.36;59.92;97608.06;5071675;28;20090;-46
2021/12/20 08:00:25;;;;;;;6.93;3.20;;;;;;;-5.29;59.59;97605.16;5071997;28;20064;-52
2021/12/20 08:02:51;;;;;;;5.90;2.45;;;;;;;-5.28;60.15;97610.28;5070922;28;20365;-55
2021/12/20 08:05:19;;;;;;;7.00;3.15;;;;;;;-5.28;59.18;97617.28;5065582;28;20453;-52
2021/12/20 08:07:48;;;;;;;7.05;2.83;;;;;;;-5.24;58.95;97627.47;5070259;28;20362;-51
2021/12/20 08:10:15;;;;;;;5.28;2.58;;;;;;;-5.21;59.10;97627.31;5068333;28;20039;-50
2021/12/20 08:12:40;;;;;;;5.25;2.38;;;;;;;-5.17;59.22;97611.53;5066615;28;20036;-55
2021/12/20 08:15:06;;;;;;;4.93;2.50;;;;;;;-5.04;59.00;97638.63;5051261;28;20059;-51
2021/12/20 08:17:32;;;;;;;4.90;2.47;;;;;;;-4.92;58.78;97626.72;5057269;28;20055;-49
2021/12/20 08:19:58;;;;;;;5.93;2.50;;;;;;;-4.87;58.27;97627.31;5071380;28;20464;-49
2021/12/20 08:22:25;;;;;;;4.85;2.08;;;;;;;-4.82;58.00;97635.75;5069604;28;20484;-53
2021/12/20 08:24:52;;;;;;;4.38;2.38;;;;;;;-4.95;57.66;97613.81;5069958;28;20025;-47
2021/12/20 08:27:18;;;;;;;6.03;2.95;;;;;;;-4.81;57.91;97647.88;5068513;28;20036;-48
2021/12/20 08:29:43;;;;;;;5.32;2.30;;;;;;;-4.77;56.98;97661.59;5064916;28;20032;-51
2021/12/20 08:32:09;;;;;;;6.22;2.65;;;;;;;-4.74;56.82;97642.31;5056035;28;20063;-49
2021/12/20 08:34:35;;;;;;;5.45;2.47;;;;;;;-4.74;57.09;97655.38;5070272;28;20032;-55
2021/12/20 08:37:01;;;;;;;3.72;2.22;;;;;;;-5.06;57.26;97606.56;5070455;28;20032;-49
2021/12/20 08:39:27;;;;;;;5.07;2.40;;;;;;;-4.78;56.99;97658.16;5070915;28;20090;-48
2021/12/20 08:41:53;;;;;;;6.07;2.35;;;;;;;-4.83;56.99;97667.97;5070623;28;20116;-48
2021/12/20 08:44:19;;;;;;;8.15;2.70;;;;;;;-4.86;57.43;97665.53;5070523;28;20109;-47
2021/12/20 08:46:45;;;;;;;6.15;2.40;;;;;;;-4.84;57.46;97662.84;5069809;28;20043;-47
2021/12/20 08:49:11;;;;;;;6.22;2.90;;;;;;;-4.84;57.25;97671.50;5070749;28;20360;-52
2021/12/20 08:51:37;;;;;;;4.97;2.38;;;;;;;-4.88;57.37;97663.94;5071025;28;20112;-52
2021/12/20 08:54:04;;;;;;;5.50;2.40;;;;;;;-4.83;56.84;97678.41;5070685;28;20059;-50
2021/12/20 08:56:30;;;;;;;10.68;2.63;;;;;;;-4.95;56.47;97677.28;5066592;28;20112;-51
2021/12/20 08:58:55;;;;;;;6.97;2.58;;;;;;;-5.00;56.92;97691.53;5052025;28;20074;-50
2021/12/20 09:01:21;;;;;;;6.30;2.47;;;;;;;-5.00;56.87;97689.75;5070064;28;20021;-49
2021/12/20 09:03:46;;;;;;;6.50;2.63;;;;;;;-5.11;56.71;97663.38;5070156;28;20035;-54
2021/12/20 09:06:13;;;;;;;7.07;2.65;;;;;;;-4.93;56.72;97685.06;5070201;28;20043;-56
2021/12/20 09:08:40;;;;;;;7.90;3.13;;;;;;;-5.56;56.24;97592.59;5070671;28;20036;-49
2021/12/20 09:11:06;;;;;;;6.97;2.30;;;;;;;-5.19;56.42;97668.97;5063682;28;20037;-62
2021/12/20 09:13:32;;;;;;;7.65;2.50;;;;;;;-4.96;56.96;97693.06;5050916;28;20384;-53
2021/12/20 09:15:59;;;;;;;7.90;2.42;;;;;;;-4.88;56.58;97701.31;5067905;28;20078;-53
2021/12/20 09:18:29;;;;;;;6.13;2.50;;;;;;;-4.88;56.18;97703.94;5068067;28;20059;-48
2021/12/20 09:20:56;;;;;;;7.05;2.90;;;;;;;-4.92;56.14;97700.66;5067333;28;20032;-56
2021/12/20 09:23:22;;;;;;;7.60;3.25;;;;;;;-5.02;56.20;97696.81;5067805;28;20035;-52
2021/12/20 09:25:48;;;;;;;4.72;2.55;;;;;;;-4.93;56.38;97713.75;5068524;28;20090;-50
2021/12/20 09:28:16;;;;;;;5.18;2.25;;;;;;;-4.94;55.86;97717.31;5066374;28;20108;-56
2021/12/20 09:30:44;;;;;;;5.25;2.30;;;;;;;-4.99;55.89;97729.75;5069549;28;20033;-51
2021/12/20 09:33:10;;;;;;;3.50;2.38;;;;;;;-5.10;55.72;97723.28;5070394;28;20053;-49
2021/12/20 09:35:36;;;;;;;6.65;2.00;;;;;;;-5.10;56.56;97732.91;5069736;28;20384;-52
2021/12/20 09:38:06;;;;;;;5.97;2.67;;;;;;;-5.07;56.81;97744.00;5070132;28;20078;-52
2021/12/20 09:40:36;;;;;;;4.70;1.98;;;;;;;-5.09;56.08;97735.41;5069979;28;20464;-50
2021/12/20 09:43:06;;;;;;;6.03;2.78;;;;;;;-5.12;55.89;97745.19;5067623;28;20028;-50
2021/12/20 09:45:32;;;;;;;6.07;2.47;;;;;;;-5.16;56.72;97744.47;5069807;28;20063;-59
2021/12/20 09:47:58;;;;;;;5.63;2.60;;;;;;;-5.15;56.45;97745.34;5069535;28;20041;-50
2021/12/20 09:50:25;;;;;;;4.97;2.38;;;;;;;-5.13;56.76;97739.09;5068515;28;20039;-52
2021/12/20 09:52:50;;;;;;;4.45;2.30;;;;;;;-5.16;56.42;97751.47;5070017;28;20102;-51
2021/12/20 09:55:17;;;;;;;5.05;2.42;;;;;;;-5.19;55.75;97760.28;5069114;28;20056;-57
2021/12/20 09:57:45;;;;;;;4.93;2.00;;;;;;;-5.29;55.62;97749.47;5057804;28;20552;-50
2021/12/20 10:00:13;;;;;;;5.75;2.42;;;;;;;-5.33;55.94;97763.59;5070894;28;20069;-49
2021/12/20 10:02:43;;;;;;;4.53;2.08;;;;;;;-5.71;56.04;97712.38;5073418;28;20067;-52
2021/12/20 10:05:11;;;;;;;4.63;2.20;;;;;;;-5.52;56.13;97774.09;5072939;28;20183;-53
2021/12/20 10:07:36;;;;;;;4.28;2.40;;;;;;;-5.64;56.49;97771.13;5070497;28;20032;-50
2021/12/20 10:10:05;;;;;;;5.30;2.28;;;;;;;-5.77;56.37;97767.44;5069975;28;20074;-48
2021/12/20 10:12:31;;;;;;;6.43;2.33;;;;;;;-5.71;56.37;97772.34;5072226;28;20468;-54
2021/12/20 10:15:10;;;;;;;8.38;2.55;;;;;;;-5.64;57.10;97780.72;5073945;28;20029;-50
2021/12/20 10:18:00;;;;;;;5.43;2.30;;;;;;;-5.60;56.68;97784.88;5073485;28;20534;-52
2021/12/20 10:20:27;;;;;;;7.05;2.92;;;;;;;-5.63;56.61;97791.06;5073406;28;20028;-51
2021/12/20 10:23:07;;;;;;;6.57;2.92;;;;;;;-5.65;56.72;97795.50;5072252;28;20033;-52
2021/12/20 10:25:34;;;;;;;9.80;3.00;;;;;;;-5.65;57.34;97790.28;5069691;28;20040;-52
2021/12/20 10:28:11;;;;;;;3.63;2.13;;;;;;;-5.74;56.48;97806.38;5070671;28;20021;-52
2021/12/20 10:30:45;;;;;;;5.25;2.55;;;;;;;-6.01;56.80;97812.00;5071214;28;20131;-54
2021/12/20 10:33:20;;;;;;;4.78;1.95;;;;;;;-6.11;57.10;97808.09;5072105;28;20059;-49
2021/12/20 10:35:55;;;;;;;6.07;2.30;;;;;;;-6.11;57.54;97802.88;5073278;28;20036;-54
2021/12/20 10:38:27;;;;;;;3.87;2.00;;;;;;;-6.15;57.05;97812.59;5071984;28;20021;-51
2021/12/20 10:40:58;;;;;;;3.85;1.90;;;;;;;-6.13;57.37;97817.75;5072191;28;20608;-51
2021/12/20 10:43:28;;;;;;;7.60;2.30;;;;;;;-6.24;56.88;97816.47;5073065;28;20028;-52
2021/12/20 10:45:55;;;;;;;4.05;2.10;;;;;;;-6.42;57.28;97815.50;5072778;28;20085;-51
2021/12/20 10:48:20;;;;;;;6.10;2.20;;;;;;;-6.43;57.75;97828.63;5073380;28;20035;-54
2021/12/20 10:50:47;;;;;;;6.03;2.45;;;;;;;-6.44;57.95;97824.31;5073175;28;20032;-50
2021/12/20 10:53:17;;;;;;;4.32;1.92;;;;;;;-6.31;58.65;97828.06;5073141;28;20389;-54
2021/12/20 10:55:50;;;;;;;4.60;2.20;;;;;;;-6.22;58.59;97838.09;5073269;28;20040;-48
2021/12/20 10:58:31;;;;;;;5.43;2.25;;;;;;;-6.20;57.85;97832.78;5073531;28;20056;-50
2021/12/20 11:04:10;;;;;;;5.85;2.40;;;;;;;-6.24;57.18;97839.91;5072868;28;20037;-53
2021/12/20 11:09:22;;;;;;;4.75;2.10;;;;;;;-6.29;56.71;97859.25;5051971;28;20036;-52
2021/12/20 11:11:57;;;;;;;4.55;2.10;;;;;;;-6.32;56.81;97865.44;5053189;28;20041;-48
2021/12/20 11:14:28;;;;;;;3.72;1.98;;;;;;;-6.39;57.43;97866.63;5052640;28;20075;-54
2021/12/20 11:16:57;;;;;;;4.55;1.90;;;;;;;-6.46;56.84;97880.81;5052436;28;20075;-55
2021/12/20 11:19:32;;;;;;;5.07;2.20;;;;;;;-6.51;56.62;97878.41;5052758;28;20040;-52
2021/12/20 11:22:20;;;;;;;6.13;2.70;;;;;;;-6.57;57.45;97887.31;5052856;28;20040;-50
2021/12/20 11:24:54;;;;;;;8.38;3.30;;;;;;;-6.60;57.30;97887.44;5052466;28;20033;-51
2021/12/20 11:27:35;;;;;;;8.07;3.00;;;;;;;-6.56;57.55;97891.63;5052608;28;20064;-49
2021/12/20 11:30:11;;;;;;;6.10;2.83;;;;;;;-6.58;57.96;97888.22;5052297;28;20037;-48
2021/12/20 11:32:39;;;;;;;5.88;2.72;;;;;;;-6.49;57.74;97900.03;5051751;28;20406;-50
2021/12/20 11:35:05;;;;;;;6.70;3.15;;;;;;;-6.46;57.49;97910.31;5052119;28;20041;-51
2021/12/20 11:37:31;;;;;;;7.45;3.40;;;;;;;-6.50;57.28;97901.78;5052295;28;20059;-50
2021/12/20 11:39:59;;;;;;;4.47;2.00;;;;;;;-6.52;56.92;97918.38;5052470;28;20457;-52
2021/12/20 11:42:25;;;;;;;5.40;2.30;;;;;;;-6.70;57.19;97920.81;5051999;28;20061;-47
2021/12/20 11:44:59;;;;;;;4.63;2.53;;;;;;;-6.79;57.26;97926.41;5052236;28;20461;-51
2021/12/20 11:47:59;;;;;;;4.35;2.58;;;;;;;-6.79;57.62;97919.44;5052105;28;20032;-52
2021/12/20 11:50:35;;;;;;;7.18;2.78;;;;;;;-6.90;57.64;97919.03;5052159;28;20041;-49